createdAt,value
2018-03-22T00:04:43.539Z,11.50
2018-03-22T00:09:46.509Z,10.68
2018-03-22T00:14:50.282Z,10.93
2018-03-22T00:19:55.371Z,12.50
2018-03-22T00:25:00.199Z,11.10
2018-03-22T00:30:04.902Z,12.73
2018-03-22T00:35:07.911Z,12.00
2018-03-22T00:40:10.984Z,11.90
2018-03-22T00:45:14.324Z,11.15
2018-03-22T00:50:17.836Z,10.93
2018-03-22T00:55:20.856Z,12.00
2018-03-22T01:00:23.969Z,12.37
2018-03-22T01:05:27.140Z,11.70
2018-03-22T01:10:30.140Z,10.70
2018-03-22T01:15:33.092Z,10.70
2018-03-22T01:20:36.060Z,10.70
2018-03-22T01:25:41.406Z,11.32
2018-03-22T01:30:44.816Z,11.00
2018-03-22T01:35:47.769Z,10.33
2018-03-22T01:40:51.742Z,11.13
2018-03-22T01:45:54.719Z,9.77
2018-03-22T01:50:59.059Z,11.07
2018-03-22T01:56:04.547Z,9.50
2018-03-22T02:01:08.369Z,9.47
2018-03-22T02:06:11.197Z,9.45
2018-03-22T02:11:14.125Z,10.60
2018-03-22T02:16:16.996Z,13.18
2018-03-22T02:21:19.852Z,13.15
2018-03-22T02:26:23.150Z,11.65
2018-03-22T02:31:25.963Z,12.13
2018-03-22T02:36:30.363Z,12.90
2018-03-22T02:41:39.080Z,12.30
2018-03-22T02:46:41.890Z,13.15
2018-03-22T02:51:44.650Z,14.90
2018-03-22T02:56:47.962Z,15.60
2018-03-22T03:01:51.295Z,15.48
2018-03-22T03:06:54.518Z,14.20
2018-03-22T03:11:57.300Z,13.50
2018-03-22T03:17:00.077Z,12.77
2018-03-22T03:22:02.934Z,11.50
2018-03-22T03:27:05.707Z,11.40
2018-03-22T03:32:08.770Z,11.80
2018-03-22T03:37:12.290Z,12.43
2018-03-22T03:42:15.230Z,11.77
2018-03-22T03:47:18.257Z,11.70
2018-03-22T03:52:22.433Z,12.60
2018-03-22T03:57:25.370Z,11.48
2018-03-22T04:02:31.193Z,10.55
2018-03-22T04:07:36.086Z,10.50
2018-03-22T04:12:38.889Z,9.67
2018-03-22T04:17:41.660Z,9.52
2018-03-22T04:22:50.689Z,9.32
2018-03-22T04:27:53.490Z,8.73
2018-03-22T04:32:56.338Z,8.98
2018-03-22T04:38:01.130Z,9.40
2018-03-22T04:43:04.041Z,10.20
2018-03-22T04:48:07.101Z,9.80
2018-03-22T04:53:09.883Z,9.70
2018-03-22T04:58:12.670Z,9.52
2018-03-22T05:03:15.541Z,9.73
2018-03-22T05:08:18.374Z,9.35
2018-03-22T05:13:21.398Z,10.93
2018-03-22T05:18:24.831Z,9.70
2018-03-22T05:23:28.845Z,9.60
2018-03-22T05:28:31.620Z,9.27
2018-03-22T05:33:34.412Z,8.60
2018-03-22T05:38:38.355Z,8.40
2018-03-22T05:43:41.096Z,7.20
2018-03-22T05:48:44.404Z,7.70
2018-03-22T05:53:47.994Z,7.33
2018-03-22T05:58:50.985Z,6.82
2018-03-22T06:03:53.780Z,7.20
2018-03-22T06:08:56.566Z,6.43
2018-03-22T06:13:59.420Z,6.18
2018-03-22T06:19:03.036Z,5.93
2018-03-22T06:24:06.234Z,6.63
2018-03-22T06:29:09.872Z,6.03
2018-03-22T06:34:14.618Z,6.28
2018-03-22T06:39:17.456Z,6.15
2018-03-22T06:44:20.225Z,6.47
2018-03-22T06:49:23.027Z,6.10
2018-03-22T06:54:25.831Z,6.20
2018-03-22T06:59:28.613Z,6.07
2018-03-22T07:04:31.820Z,6.40
2018-03-22T07:09:34.588Z,5.90
2018-03-22T07:14:38.172Z,5.60
2018-03-22T07:19:41.054Z,6.30
2018-03-22T07:24:43.839Z,6.50
2018-03-22T07:29:46.634Z,6.95
2018-03-22T07:34:50.406Z,7.57
2018-03-22T07:39:53.314Z,6.70
2018-03-22T07:44:56.136Z,7.53
2018-03-22T07:49:58.993Z,7.43
2018-03-22T07:55:01.767Z,7.90
2018-03-22T08:00:06.529Z,9.13
2018-03-22T08:05:10.429Z,9.10
2018-03-22T08:10:13.277Z,9.75
2018-03-22T08:15:20.861Z,10.85
2018-03-22T08:20:23.687Z,12.00
2018-03-22T08:25:29.964Z,12.02
2018-03-22T08:30:32.790Z,12.50
2018-03-22T08:35:37.281Z,13.57
2018-03-22T08:40:40.075Z,13.68
2018-03-22T08:45:42.901Z,12.95
2018-03-22T08:50:45.741Z,13.27
2018-03-22T08:55:48.511Z,14.52
2018-03-22T09:00:51.258Z,14.20
2018-03-22T09:05:54.146Z,14.20
2018-03-22T09:10:57.090Z,14.85
2018-03-22T09:16:00.949Z,16.95
2018-03-22T09:21:04.702Z,18.52
2018-03-22T09:26:09.429Z,17.83
2018-03-22T09:31:12.306Z,19.25
2018-03-22T09:36:15.925Z,19.98
2018-03-22T09:41:19.535Z,20.33
2018-03-22T09:46:23.356Z,19.30
2018-03-22T09:51:27.558Z,20.23
2018-03-22T09:56:36.182Z,20.90
2018-03-22T10:01:39.286Z,22.35
2018-03-22T10:06:42.063Z,22.73
2018-03-22T10:11:44.895Z,22.50
2018-03-22T10:16:48.745Z,21.50
2018-03-22T10:21:51.607Z,23.40
2018-03-22T10:26:54.447Z,21.83
2018-03-22T10:31:58.499Z,23.75
2018-03-22T10:37:02.223Z,24.70
2018-03-22T10:42:06.809Z,26.67
2018-03-22T10:47:11.486Z,24.70
2018-03-22T10:52:14.549Z,26.70
2018-03-22T10:57:17.816Z,25.70
2018-03-22T11:02:27.383Z,23.08
2018-03-22T11:07:34.078Z,23.95
2018-03-22T11:12:42.171Z,24.37
2018-03-22T11:17:47.440Z,23.40
2018-03-22T11:22:51.583Z,23.45
2018-03-22T11:27:54.994Z,23.42
2018-03-22T11:32:58.322Z,22.90
2018-03-22T11:38:01.621Z,23.50
2018-03-22T11:43:04.857Z,24.37
2018-03-22T11:48:09.298Z,24.00
2018-03-22T11:53:15.785Z,24.48
2018-03-22T11:58:24.829Z,24.08
2018-03-22T12:03:45.446Z,23.73
2018-03-22T12:08:55.754Z,25.00
2018-03-22T12:13:58.620Z,24.83
2018-03-22T12:19:01.431Z,25.27
2018-03-22T12:24:04.324Z,25.20
2018-03-22T12:29:15.179Z,25.25
2018-03-22T12:34:18.306Z,24.10
2018-03-22T12:39:23.056Z,28.03
2018-03-22T12:44:26.964Z,24.67
2018-03-22T12:49:30.094Z,26.17
2018-03-22T12:54:32.950Z,26.35
2018-03-22T12:59:42.304Z,26.52
2018-03-22T13:04:49.641Z,26.27
2018-03-22T13:09:53.655Z,26.05
2018-03-22T13:14:58.576Z,27.17
2018-03-22T13:20:02.124Z,27.73
2018-03-22T13:25:08.916Z,27.67
2018-03-22T13:30:11.804Z,28.25
2018-03-22T13:35:14.706Z,29.98
2018-03-22T13:40:24.773Z,29.23
2018-03-22T13:45:27.610Z,28.87
2018-03-22T13:50:37.016Z,27.02
2018-03-22T13:55:40.841Z,28.67
2018-03-22T14:00:43.758Z,33.53
2018-03-22T14:05:46.546Z,29.42
2018-03-22T14:10:49.411Z,26.63
2018-03-22T14:15:52.339Z,26.62
2018-03-22T14:20:55.282Z,25.50
2018-03-22T14:25:58.326Z,27.13
2018-03-22T14:31:01.132Z,28.37
2018-03-22T14:36:08.121Z,28.40
2018-03-22T14:41:11.252Z,27.95
2018-03-22T14:46:18.541Z,27.02
2018-03-22T14:51:26.173Z,29.60
2018-03-22T14:56:31.077Z,27.30
2018-03-22T15:01:34.193Z,25.60
2018-03-22T15:06:37.925Z,26.45
2018-03-22T15:11:42.532Z,24.97
2018-03-22T15:16:45.662Z,25.67
2018-03-22T15:21:54.748Z,26.55
2018-03-22T15:26:58.549Z,24.42
2018-03-22T15:32:01.535Z,23.15
2018-03-22T15:37:05.493Z,23.87
2018-03-22T15:42:09.349Z,23.17
2018-03-22T15:47:12.589Z,22.50
2018-03-22T15:52:16.097Z,23.67
2018-03-22T15:57:18.965Z,22.95
2018-03-22T16:02:22.871Z,21.70
2018-03-22T16:07:32.288Z,23.42
2018-03-22T16:12:47.695Z,22.37
2018-03-22T16:17:51.390Z,24.30
2018-03-22T16:22:54.357Z,23.20
2018-03-22T16:28:01.061Z,21.77
2018-03-22T16:33:04.184Z,23.60
2018-03-22T16:38:07.385Z,24.40
2018-03-22T16:43:11.622Z,24.48
2018-03-22T16:48:14.650Z,24.58
2018-03-22T16:53:17.475Z,25.12
2018-03-22T16:58:20.451Z,24.65
2018-03-22T17:03:27.033Z,25.05
2018-03-22T17:08:56.037Z,25.55
2018-03-22T17:13:59.025Z,25.62
2018-03-22T17:19:01.933Z,23.40
2018-03-22T17:24:05.598Z,25.30
2018-03-22T17:29:14.369Z,24.83
2018-03-22T17:34:17.792Z,22.67
2018-03-22T17:39:21.533Z,22.90
2018-03-22T17:44:29.316Z,21.77
2018-03-22T17:49:40.076Z,22.30
2018-03-22T17:54:43.017Z,23.85
2018-03-22T17:59:49.459Z,21.67
2018-03-22T18:04:53.141Z,23.08
2018-03-22T18:09:56.529Z,21.87
2018-03-22T18:14:59.455Z,23.75
2018-03-22T18:20:02.789Z,23.80
2018-03-22T18:25:11.651Z,23.60
2018-03-22T18:30:14.711Z,23.20
2018-03-22T18:35:17.708Z,23.17
2018-03-22T18:40:22.387Z,22.70
2018-03-22T18:45:29.397Z,22.02
2018-03-22T18:50:32.674Z,26.37
2018-03-22T18:55:35.658Z,24.02
2018-03-22T19:00:39.203Z,24.10
2018-03-22T19:05:43.444Z,23.92
2018-03-22T19:10:57.405Z,23.80
2018-03-22T19:16:12.754Z,24.80
2018-03-22T19:21:30.111Z,25.20
2018-03-22T19:26:48.148Z,26.15
2018-03-22T19:31:50.969Z,25.10
2018-03-22T19:36:53.970Z,24.40
2018-03-22T19:42:12.235Z,26.60
2018-03-22T19:47:16.405Z,26.48
2018-03-22T19:52:20.414Z,27.80
2018-03-22T19:57:24.928Z,28.98
2018-03-22T20:02:28.930Z,28.92
2018-03-22T20:07:32.824Z,29.10
2018-03-22T20:12:35.701Z,30.33
2018-03-22T20:17:40.639Z,29.67
2018-03-22T20:22:48.594Z,29.97
2018-03-22T20:27:54.723Z,30.20
2018-03-22T20:32:58.286Z,31.20
2018-03-22T20:38:03.887Z,28.75
2018-03-22T20:43:07.652Z,30.00
2018-03-22T20:48:12.105Z,27.40
2018-03-22T20:53:17.078Z,29.58
2018-03-22T20:58:22.369Z,28.12
2018-03-22T21:03:31.439Z,28.73
2018-03-22T21:08:35.363Z,27.77
2018-03-22T21:13:40.705Z,29.27
2018-03-22T21:18:44.994Z,28.65
2018-03-22T21:23:48.468Z,27.52
2018-03-22T21:28:52.149Z,27.40
2018-03-22T21:33:59.296Z,29.83
2018-03-22T21:39:03.380Z,31.75
2018-03-22T21:44:15.234Z,32.10
2018-03-22T21:49:18.898Z,28.67
2018-03-22T21:54:21.737Z,29.45
2018-03-22T21:59:24.768Z,30.08
2018-03-22T22:04:28.492Z,28.87
2018-03-22T22:09:33.098Z,29.63
2018-03-22T22:14:38.218Z,30.67
2018-03-22T22:19:43.254Z,31.10
2018-03-22T22:24:52.173Z,30.30
2018-03-22T22:29:56.536Z,32.85
2018-03-22T22:35:10.316Z,31.60
2018-03-22T22:40:14.246Z,33.85
2018-03-22T22:45:19.534Z,33.25
2018-03-22T22:56:02.339Z,32.10
2018-03-22T23:01:05.574Z,34.45
2018-03-22T23:06:08.949Z,36.17
2018-03-22T23:11:13.327Z,33.17
2018-03-22T23:16:17.886Z,34.78
2018-03-22T23:21:21.204Z,35.50
2018-03-22T23:26:25.044Z,34.00
2018-03-22T23:31:28.935Z,33.73
2018-03-22T23:36:31.818Z,34.72
2018-03-22T23:41:34.647Z,35.50
2018-03-22T23:46:37.485Z,34.92
2018-03-22T23:51:40.348Z,37.30
2018-03-22T23:56:45.327Z,36.40
